Terminal Aerodrome Forecast
Issued by NWS

Home | Current Version | Previous Version | Text Only | Print | Product List | Glossary On
Versions: 1 2 3 4 5 6 7 8 9 10 11 12 13 14 15 16 17 18 19 20 21 22 23 24 25
000
FTPA31 PHFO 281700
TAFITO
TAF
PHTO 281730Z 2818/2918 22005KT P6SM FEW035 SCT045
     FM282000 08010KT P6SM VCSH SCT020 BKN045
     FM290600 28005KT P6SM SCT020 SCT045=

USA.gov is the U.S. government's official web portal to all federal, state and local government web resources and services.